sensor_id;sensor_type;location;lat;lon;timestamp;temperature;humidity
24772;DHT22;12870;52.274;9.754;2023-08-31T00:00:09;14.40;99.90
24772;DHT22;12870;52.274;9.754;2023-08-31T00:02:35;14.40;99.90
24772;DHT22;12870;52.274;9.754;2023-08-31T00:05:01;14.40;99.90
24772;DHT22;12870;52.274;9.754;2023-08-31T00:07:27;14.30;99.90
24772;DHT22;12870;52.274;9.754;2023-08-31T00:09:52;14.20;99.90
24772;DHT22;12870;52.274;9.754;2023-08-31T00:12:19;14.20;99.90
24772;DHT22;12870;52.274;9.754;2023-08-31T00:14:44;14.20;99.90
24772;DHT22;12870;52.274;9.754;2023-08-31T00:17:10;14.20;99.90
24772;DHT22;12870;52.274;9.754;2023-08-31T00:19:36;14.20;99.90
24772;DHT22;12870;52.274;9.754;2023-08-31T00:22:01;14.10;99.90
24772;DHT22;12870;52.274;9.754;2023-08-31T00:24:27;14.10;99.90
24772;DHT22;12870;52.274;9.754;2023-08-31T00:26:57;14.10;99.90
24772;DHT22;12870;52.274;9.754;2023-08-31T00:29:23;14.10;99.90
24772;DHT22;12870;52.274;9.754;2023-08-31T00:31:51;14.10;99.90
24772;DHT22;12870;52.274;9.754;2023-08-31T00:34:19;14.00;99.90
24772;DHT22;12870;52.274;9.754;2023-08-31T00:36:44;14.00;99.90
24772;DHT22;12870;52.274;9.754;2023-08-31T00:39:10;14.00;99.90
24772;DHT22;12870;52.274;9.754;2023-08-31T00:41:36;14.00;99.90
24772;DHT22;12870;52.274;9.754;2023-08-31T00:44:03;14.00;99.90
24772;DHT22;12870;52.274;9.754;2023-08-31T00:46:31;14.00;99.90
24772;DHT22;12870;52.274;9.754;2023-08-31T00:48:57;14.00;99.90
24772;DHT22;12870;52.274;9.754;2023-08-31T00:51:24;14.00;99.90
24772;DHT22;12870;52.274;9.754;2023-08-31T00:53:52;13.90;99.90
24772;DHT22;12870;52.274;9.754;2023-08-31T00:56:20;13.90;99.90
24772;DHT22;12870;52.274;9.754;2023-08-31T00:58:45;13.80;99.90
24772;DHT22;12870;52.274;9.754;2023-08-31T01:01:35;13.80;99.90
24772;DHT22;12870;52.274;9.754;2023-08-31T01:04:33;13.70;99.90
24772;DHT22;12870;52.274;9.754;2023-08-31T01:12:33;13.70;99.90
24772;DHT22;12870;52.274;9.754;2023-08-31T01:15:03;13.70;99.90
24772;DHT22;12870;52.274;9.754;2023-08-31T01:17:31;13.70;99.90
24772;DHT22;12870;52.274;9.754;2023-08-31T01:19:59;13.60;99.90
24772;DHT22;12870;52.274;9.754;2023-08-31T01:22:46;13.60;99.90
24772;DHT22;12870;52.274;9.754;2023-08-31T01:25:13;13.50;99.90
24772;DHT22;12870;52.274;9.754;2023-08-31T01:27:39;13.50;99.90
24772;DHT22;12870;52.274;9.754;2023-08-31T01:30:06;13.50;99.90
24772;DHT22;12870;52.274;9.754;2023-08-31T01:32:32;13.50;99.90
24772;DHT22;12870;52.274;9.754;2023-08-31T01:34:58;13.50;99.90
24772;DHT22;12870;52.274;9.754;2023-08-31T01:40:35;13.50;99.90
24772;DHT22;12870;52.274;9.754;2023-08-31T01:43:06;13.50;99.90
24772;DHT22;12870;52.274;9.754;2023-08-31T01:45:32;13.50;99.90
24772;DHT22;12870;52.274;9.754;2023-08-31T01:48:03;13.40;99.90
24772;DHT22;12870;52.274;9.754;2023-08-31T01:50:29;13.40;99.90
24772;DHT22;12870;52.274;9.754;2023-08-31T01:52:55;13.40;99.90
24772;DHT22;12870;52.274;9.754;2023-08-31T01:55:22;13.40;99.90
24772;DHT22;12870;52.274;9.754;2023-08-31T01:57:48;13.40;99.90
24772;DHT22;12870;52.274;9.754;2023-08-31T02:00:14;13.40;99.90
24772;DHT22;12870;52.274;9.754;2023-08-31T02:02:41;13.40;99.90
24772;DHT22;12870;52.274;9.754;2023-08-31T02:05:07;13.40;99.90
24772;DHT22;12870;52.274;9.754;2023-08-31T02:07:33;13.40;99.90
24772;DHT22;12870;52.274;9.754;2023-08-31T02:09:59;13.40;99.90
24772;DHT22;12870;52.274;9.754;2023-08-31T02:12:25;13.40;99.90
24772;DHT22;12870;52.274;9.754;2023-08-31T02:14:50;13.40;99.90
24772;DHT22;12870;52.274;9.754;2023-08-31T02:17:16;13.40;99.90
24772;DHT22;12870;52.274;9.754;2023-08-31T02:19:42;13.30;99.90
24772;DHT22;12870;52.274;9.754;2023-08-31T02:22:08;13.30;99.90
24772;DHT22;12870;52.274;9.754;2023-08-31T02:24:34;13.30;99.90
24772;DHT22;12870;52.274;9.754;2023-08-31T02:26:59;13.20;99.90
24772;DHT22;12870;52.274;9.754;2023-08-31T02:29:25;13.20;99.90
24772;DHT22;12870;52.274;9.754;2023-08-31T02:31:50;13.20;99.90
24772;DHT22;12870;52.274;9.754;2023-08-31T02:34:16;13.20;99.90
24772;DHT22;12870;52.274;9.754;2023-08-31T02:36:42;13.20;99.90
24772;DHT22;12870;52.274;9.754;2023-08-31T02:39:07;13.20;99.90
24772;DHT22;12870;52.274;9.754;2023-08-31T02:41:33;13.20;99.90
24772;DHT22;12870;52.274;9.754;2023-08-31T02:43:59;13.20;99.90
24772;DHT22;12870;52.274;9.754;2023-08-31T02:46:24;13.20;99.90
24772;DHT22;12870;52.274;9.754;2023-08-31T02:48:50;13.20;99.90
24772;DHT22;12870;52.274;9.754;2023-08-31T02:51:16;13.20;99.90
24772;DHT22;12870;52.274;9.754;2023-08-31T02:53:41;13.20;99.90
24772;DHT22;12870;52.274;9.754;2023-08-31T02:56:07;13.30;99.90
24772;DHT22;12870;52.274;9.754;2023-08-31T02:58:33;13.30;99.90
24772;DHT22;12870;52.274;9.754;2023-08-31T03:01:09;13.20;99.90
24772;DHT22;12870;52.274;9.754;2023-08-31T03:03:40;13.30;99.90
24772;DHT22;12870;52.274;9.754;2023-08-31T03:06:07;13.30;99.90
24772;DHT22;12870;52.274;9.754;2023-08-31T03:08:37;13.30;99.90
24772;DHT22;12870;52.274;9.754;2023-08-31T03:11:04;13.30;99.90
24772;DHT22;12870;52.274;9.754;2023-08-31T03:13:31;13.40;99.90
24772;DHT22;12870;52.274;9.754;2023-08-31T03:15:56;13.30;99.90
24772;DHT22;12870;52.274;9.754;2023-08-31T03:18:22;13.30;99.90
24772;DHT22;12870;52.274;9.754;2023-08-31T03:20:48;13.30;99.90
24772;DHT22;12870;52.274;9.754;2023-08-31T03:23:14;13.40;99.90
24772;DHT22;12870;52.274;9.754;2023-08-31T03:25:40;13.40;99.90
24772;DHT22;12870;52.274;9.754;2023-08-31T03:28:06;13.40;99.90
24772;DHT22;12870;52.274;9.754;2023-08-31T03:30:32;13.40;99.90
24772;DHT22;12870;52.274;9.754;2023-08-31T03:32:57;13.40;99.90
24772;DHT22;12870;52.274;9.754;2023-08-31T03:35:23;13.40;99.90
24772;DHT22;12870;52.274;9.754;2023-08-31T03:37:53;13.40;99.90
24772;DHT22;12870;52.274;9.754;2023-08-31T03:40:19;13.40;99.90
24772;DHT22;12870;52.274;9.754;2023-08-31T03:42:44;13.40;99.90
24772;DHT22;12870;52.274;9.754;2023-08-31T03:45:11;13.40;99.90
24772;DHT22;12870;52.274;9.754;2023-08-31T03:47:37;13.40;99.90
24772;DHT22;12870;52.274;9.754;2023-08-31T03:50:03;13.40;99.90
24772;DHT22;12870;52.274;9.754;2023-08-31T03:52:29;13.40;99.90
24772;DHT22;12870;52.274;9.754;2023-08-31T03:54:55;13.40;99.90
24772;DHT22;12870;52.274;9.754;2023-08-31T03:57:20;13.50;99.90
24772;DHT22;12870;52.274;9.754;2023-08-31T03:59:46;13.50;99.90
24772;DHT22;12870;52.274;9.754;2023-08-31T04:02:12;13.40;99.90
24772;DHT22;12870;52.274;9.754;2023-08-31T04:04:38;13.40;99.90
24772;DHT22;12870;52.274;9.754;2023-08-31T04:07:03;13.40;99.90
24772;DHT22;12870;52.274;9.754;2023-08-31T04:09:29;13.40;99.90
24772;DHT22;12870;52.274;9.754;2023-08-31T04:11:55;13.40;99.90
24772;DHT22;12870;52.274;9.754;2023-08-31T04:14:21;13.40;99.90
24772;DHT22;12870;52.274;9.754;2023-08-31T04:16:47;13.40;99.90
24772;DHT22;12870;52.274;9.754;2023-08-31T04:19:15;13.40;99.90
24772;DHT22;12870;52.274;9.754;2023-08-31T04:21:42;13.40;99.90
24772;DHT22;12870;52.274;9.754;2023-08-31T04:24:08;13.40;99.90
24772;DHT22;12870;52.274;9.754;2023-08-31T04:26:33;13.40;99.90
24772;DHT22;12870;52.274;9.754;2023-08-31T04:28:59;13.40;99.90
24772;DHT22;12870;52.274;9.754;2023-08-31T04:31:24;13.40;99.90
24772;DHT22;12870;52.274;9.754;2023-08-31T04:33:50;13.40;99.90
24772;DHT22;12870;52.274;9.754;2023-08-31T04:36:22;13.30;99.90
24772;DHT22;12870;52.274;9.754;2023-08-31T04:38:51;13.30;99.90
24772;DHT22;12870;52.274;9.754;2023-08-31T04:41:17;13.30;99.90
24772;DHT22;12870;52.274;9.754;2023-08-31T04:43:43;13.30;99.90
24772;DHT22;12870;52.274;9.754;2023-08-31T04:46:09;13.20;99.90
24772;DHT22;12870;52.274;9.754;2023-08-31T04:48:35;13.20;99.90
24772;DHT22;12870;52.274;9.754;2023-08-31T04:51:01;13.20;99.90
24772;DHT22;12870;52.274;9.754;2023-08-31T04:53:29;13.20;99.90
24772;DHT22;12870;52.274;9.754;2023-08-31T04:55:55;13.30;99.90
24772;DHT22;12870;52.274;9.754;2023-08-31T04:58:21;13.20;99.90
24772;DHT22;12870;52.274;9.754;2023-08-31T05:00:46;13.20;99.90
24772;DHT22;12870;52.274;9.754;2023-08-31T05:03:13;13.30;99.90
24772;DHT22;12870;52.274;9.754;2023-08-31T05:05:39;13.30;99.90
24772;DHT22;12870;52.274;9.754;2023-08-31T05:08:05;13.30;99.90
24772;DHT22;12870;52.274;9.754;2023-08-31T05:10:30;13.30;99.90
24772;DHT22;12870;52.274;9.754;2023-08-31T05:12:56;13.30;99.90
24772;DHT22;12870;52.274;9.754;2023-08-31T05:15:22;13.30;99.90
24772;DHT22;12870;52.274;9.754;2023-08-31T05:17:48;13.30;99.90
24772;DHT22;12870;52.274;9.754;2023-08-31T05:20:14;13.30;99.90
24772;DHT22;12870;52.274;9.754;2023-08-31T05:22:40;13.30;99.90
24772;DHT22;12870;52.274;9.754;2023-08-31T05:25:06;13.30;99.90
24772;DHT22;12870;52.274;9.754;2023-08-31T05:27:31;13.30;99.90
24772;DHT22;12870;52.274;9.754;2023-08-31T05:29:57;13.30;99.90
24772;DHT22;12870;52.274;9.754;2023-08-31T05:32:23;13.40;99.90
24772;DHT22;12870;52.274;9.754;2023-08-31T05:34:48;13.50;99.90
24772;DHT22;12870;52.274;9.754;2023-08-31T05:37:14;13.50;99.90
24772;DHT22;12870;52.274;9.754;2023-08-31T05:39:40;13.50;99.90
24772;DHT22;12870;52.274;9.754;2023-08-31T05:42:05;13.60;99.90
24772;DHT22;12870;52.274;9.754;2023-08-31T05:44:31;13.50;99.90
24772;DHT22;12870;52.274;9.754;2023-08-31T05:46:57;13.50;99.90
24772;DHT22;12870;52.274;9.754;2023-08-31T05:49:22;13.50;99.90
24772;DHT22;12870;52.274;9.754;2023-08-31T05:51:49;13.60;99.90
24772;DHT22;12870;52.274;9.754;2023-08-31T05:54:14;13.70;99.90
24772;DHT22;12870;52.274;9.754;2023-08-31T05:56:40;13.70;99.90
24772;DHT22;12870;52.274;9.754;2023-08-31T05:59:06;13.70;99.90
24772;DHT22;12870;52.274;9.754;2023-08-31T06:01:33;13.70;99.90
24772;DHT22;12870;52.274;9.754;2023-08-31T06:03:59;13.80;99.90
24772;DHT22;12870;52.274;9.754;2023-08-31T06:06:24;13.80;99.90
24772;DHT22;12870;52.274;9.754;2023-08-31T06:08:50;13.80;99.90
24772;DHT22;12870;52.274;9.754;2023-08-31T06:11:16;13.80;99.90
24772;DHT22;12870;52.274;9.754;2023-08-31T06:13:41;13.80;99.90
24772;DHT22;12870;52.274;9.754;2023-08-31T06:16:07;14.00;99.90
24772;DHT22;12870;52.274;9.754;2023-08-31T06:18:34;14.00;99.90
24772;DHT22;12870;52.274;9.754;2023-08-31T06:21:00;14.10;99.90
24772;DHT22;12870;52.274;9.754;2023-08-31T06:23:25;14.10;99.90
24772;DHT22;12870;52.274;9.754;2023-08-31T06:25:51;14.30;99.90
24772;DHT22;12870;52.274;9.754;2023-08-31T06:28:18;14.30;99.90
24772;DHT22;12870;52.274;9.754;2023-08-31T06:30:43;14.40;99.90
24772;DHT22;12870;52.274;9.754;2023-08-31T06:33:15;14.30;99.90
24772;DHT22;12870;52.274;9.754;2023-08-31T06:35:41;14.40;99.90
24772;DHT22;12870;52.274;9.754;2023-08-31T06:38:06;14.70;99.90
24772;DHT22;12870;52.274;9.754;2023-08-31T06:40:32;14.70;99.90
24772;DHT22;12870;52.274;9.754;2023-08-31T06:42:58;14.80;99.90
24772;DHT22;12870;52.274;9.754;2023-08-31T06:45:25;14.80;99.90
24772;DHT22;12870;52.274;9.754;2023-08-31T06:47:50;14.70;99.90
24772;DHT22;12870;52.274;9.754;2023-08-31T06:50:16;14.80;99.90
24772;DHT22;12870;52.274;9.754;2023-08-31T06:52:42;14.70;99.90
24772;DHT22;12870;52.274;9.754;2023-08-31T06:55:09;14.70;99.90
24772;DHT22;12870;52.274;9.754;2023-08-31T06:57:36;14.70;99.90
24772;DHT22;12870;52.274;9.754;2023-08-31T07:00:03;14.70;99.90
24772;DHT22;12870;52.274;9.754;2023-08-31T07:02:29;14.70;99.90
24772;DHT22;12870;52.274;9.754;2023-08-31T07:04:55;14.70;99.90
24772;DHT22;12870;52.274;9.754;2023-08-31T07:07:22;14.70;99.90
24772;DHT22;12870;52.274;9.754;2023-08-31T07:09:47;14.70;99.90
24772;DHT22;12870;52.274;9.754;2023-08-31T07:12:16;14.80;99.90
24772;DHT22;12870;52.274;9.754;2023-08-31T07:14:42;14.90;99.90
24772;DHT22;12870;52.274;9.754;2023-08-31T07:17:08;15.00;99.90
24772;DHT22;12870;52.274;9.754;2023-08-31T07:19:37;14.90;99.90
24772;DHT22;12870;52.274;9.754;2023-08-31T07:22:03;14.90;99.90
24772;DHT22;12870;52.274;9.754;2023-08-31T07:24:29;14.90;99.90
24772;DHT22;12870;52.274;9.754;2023-08-31T07:26:55;14.80;99.90
24772;DHT22;12870;52.274;9.754;2023-08-31T07:29:21;14.90;99.90
24772;DHT22;12870;52.274;9.754;2023-08-31T07:31:47;15.00;99.90
24772;DHT22;12870;52.274;9.754;2023-08-31T07:34:12;15.10;99.90
24772;DHT22;12870;52.274;9.754;2023-08-31T07:36:38;15.10;99.90
24772;DHT22;12870;52.274;9.754;2023-08-31T07:39:05;15.20;99.90
24772;DHT22;12870;52.274;9.754;2023-08-31T07:41:30;15.30;99.90
24772;DHT22;12870;52.274;9.754;2023-08-31T07:43:56;15.40;99.90
24772;DHT22;12870;52.274;9.754;2023-08-31T07:46:22;15.60;99.90
24772;DHT22;12870;52.274;9.754;2023-08-31T07:48:47;15.60;99.90
24772;DHT22;12870;52.274;9.754;2023-08-31T07:51:15;15.60;99.90
24772;DHT22;12870;52.274;9.754;2023-08-31T07:53:41;15.50;99.90
24772;DHT22;12870;52.274;9.754;2023-08-31T07:56:06;15.70;99.90
24772;DHT22;12870;52.274;9.754;2023-08-31T07:58:32;15.80;99.90
24772;DHT22;12870;52.274;9.754;2023-08-31T08:00:58;15.70;99.90
24772;DHT22;12870;52.274;9.754;2023-08-31T08:03:24;15.70;99.90
24772;DHT22;12870;52.274;9.754;2023-08-31T08:05:50;15.60;99.90
24772;DHT22;12870;52.274;9.754;2023-08-31T08:08:16;15.50;99.90
24772;DHT22;12870;52.274;9.754;2023-08-31T08:10:42;15.50;99.90
24772;DHT22;12870;52.274;9.754;2023-08-31T08:13:09;15.60;99.90
24772;DHT22;12870;52.274;9.754;2023-08-31T08:15:35;15.70;99.90
24772;DHT22;12870;52.274;9.754;2023-08-31T08:18:00;15.70;99.90
24772;DHT22;12870;52.274;9.754;2023-08-31T08:20:27;15.60;99.90
24772;DHT22;12870;52.274;9.754;2023-08-31T08:22:54;15.60;99.90
24772;DHT22;12870;52.274;9.754;2023-08-31T08:25:20;15.70;99.90
24772;DHT22;12870;52.274;9.754;2023-08-31T08:27:46;15.80;99.90
24772;DHT22;12870;52.274;9.754;2023-08-31T08:30:12;15.80;99.90
24772;DHT22;12870;52.274;9.754;2023-08-31T08:32:38;15.80;99.90
24772;DHT22;12870;52.274;9.754;2023-08-31T08:35:04;15.90;99.90
24772;DHT22;12870;52.274;9.754;2023-08-31T08:37:31;15.90;99.90
24772;DHT22;12870;52.274;9.754;2023-08-31T08:39:58;15.90;99.90
24772;DHT22;12870;52.274;9.754;2023-08-31T08:42:25;15.90;99.90
24772;DHT22;12870;52.274;9.754;2023-08-31T08:44:51;16.00;99.90
24772;DHT22;12870;52.274;9.754;2023-08-31T08:47:20;16.00;99.90
24772;DHT22;12870;52.274;9.754;2023-08-31T08:49:47;16.00;99.90
24772;DHT22;12870;52.274;9.754;2023-08-31T08:52:14;16.10;99.90
24772;DHT22;12870;52.274;9.754;2023-08-31T08:54:40;16.00;99.90
24772;DHT22;12870;52.274;9.754;2023-08-31T08:57:06;15.90;99.90
24772;DHT22;12870;52.274;9.754;2023-08-31T08:59:32;16.00;99.90
24772;DHT22;12870;52.274;9.754;2023-08-31T09:01:57;16.40;99.90
24772;DHT22;12870;52.274;9.754;2023-08-31T09:04:23;16.70;99.90
24772;DHT22;12870;52.274;9.754;2023-08-31T09:06:52;16.90;99.90
24772;DHT22;12870;52.274;9.754;2023-08-31T09:09:20;16.80;99.90
24772;DHT22;12870;52.274;9.754;2023-08-31T09:11:46;16.90;99.90
24772;DHT22;12870;52.274;9.754;2023-08-31T09:14:16;16.90;99.90
24772;DHT22;12870;52.274;9.754;2023-08-31T09:16:50;16.90;99.90
24772;DHT22;12870;52.274;9.754;2023-08-31T09:21:46;16.50;99.90
24772;DHT22;12870;52.274;9.754;2023-08-31T09:24:12;16.60;99.90
24772;DHT22;12870;52.274;9.754;2023-08-31T09:26:45;16.60;99.90
24772;DHT22;12870;52.274;9.754;2023-08-31T09:29:14;16.60;99.90
24772;DHT22;12870;52.274;9.754;2023-08-31T09:31:44;16.70;99.90
24772;DHT22;12870;52.274;9.754;2023-08-31T09:34:10;17.30;99.90
24772;DHT22;12870;52.274;9.754;2023-08-31T09:36:37;17.50;99.90
24772;DHT22;12870;52.274;9.754;2023-08-31T09:39:05;17.60;99.90
24772;DHT22;12870;52.274;9.754;2023-08-31T09:41:30;17.40;99.90
24772;DHT22;12870;52.274;9.754;2023-08-31T09:43:56;17.30;99.90
24772;DHT22;12870;52.274;9.754;2023-08-31T09:46:39;17.50;99.90
24772;DHT22;12870;52.274;9.754;2023-08-31T09:49:05;17.90;99.90
24772;DHT22;12870;52.274;9.754;2023-08-31T09:51:31;17.90;99.90
24772;DHT22;12870;52.274;9.754;2023-08-31T09:53:58;17.90;99.90
24772;DHT22;12870;52.274;9.754;2023-08-31T09:56:26;18.40;99.90
24772;DHT22;12870;52.274;9.754;2023-08-31T09:58:54;18.50;99.90
24772;DHT22;12870;52.274;9.754;2023-08-31T10:01:20;18.30;99.90
24772;DHT22;12870;52.274;9.754;2023-08-31T10:03:46;17.90;99.90
24772;DHT22;12870;52.274;9.754;2023-08-31T10:06:11;18.00;99.90
24772;DHT22;12870;52.274;9.754;2023-08-31T10:08:38;17.80;99.90
24772;DHT22;12870;52.274;9.754;2023-08-31T10:11:05;17.60;99.90
24772;DHT22;12870;52.274;9.754;2023-08-31T10:13:32;17.40;99.90
24772;DHT22;12870;52.274;9.754;2023-08-31T10:16:04;17.60;99.90
24772;DHT22;12870;52.274;9.754;2023-08-31T10:18:31;17.90;99.90
24772;DHT22;12870;52.274;9.754;2023-08-31T10:20:57;17.90;99.90
24772;DHT22;12870;52.274;9.754;2023-08-31T10:23:22;18.10;99.90
24772;DHT22;12870;52.274;9.754;2023-08-31T10:28:24;18.70;99.90
24772;DHT22;12870;52.274;9.754;2023-08-31T10:31:10;19.10;99.90
24772;DHT22;12870;52.274;9.754;2023-08-31T10:36:15;19.40;99.90
24772;DHT22;12870;52.274;9.754;2023-08-31T10:38:46;19.60;99.90
24772;DHT22;12870;52.274;9.754;2023-08-31T10:43:51;20.10;99.90
24772;DHT22;12870;52.274;9.754;2023-08-31T10:49:16;19.90;99.90
24772;DHT22;12870;52.274;9.754;2023-08-31T10:51:45;19.30;99.90
24772;DHT22;12870;52.274;9.754;2023-08-31T10:54:30;19.50;99.90
24772;DHT22;12870;52.274;9.754;2023-08-31T10:59:50;19.10;99.90
24772;DHT22;12870;52.274;9.754;2023-08-31T11:02:43;18.90;99.90
24772;DHT22;12870;52.274;9.754;2023-08-31T11:05:19;19.20;99.90
24772;DHT22;12870;52.274;9.754;2023-08-31T11:07:48;19.10;99.90
24772;DHT22;12870;52.274;9.754;2023-08-31T11:10:23;18.90;99.90
24772;DHT22;12870;52.274;9.754;2023-08-31T11:12:53;19.20;99.90
24772;DHT22;12870;52.274;9.754;2023-08-31T11:15:21;19.50;99.90
24772;DHT22;12870;52.274;9.754;2023-08-31T11:17:51;19.70;99.90
24772;DHT22;12870;52.274;9.754;2023-08-31T11:20:18;20.10;99.90
24772;DHT22;12870;52.274;9.754;2023-08-31T11:22:49;20.60;99.90
24772;DHT22;12870;52.274;9.754;2023-08-31T11:25:16;20.70;99.90
24772;DHT22;12870;52.274;9.754;2023-08-31T11:27:42;21.00;99.90
24772;DHT22;12870;52.274;9.754;2023-08-31T11:30:14;20.60;99.90
24772;DHT22;12870;52.274;9.754;2023-08-31T11:32:47;21.50;99.90
24772;DHT22;12870;52.274;9.754;2023-08-31T11:35:14;21.80;99.90
24772;DHT22;12870;52.274;9.754;2023-08-31T11:37:45;22.30;99.90
24772;DHT22;12870;52.274;9.754;2023-08-31T11:40:14;21.60;99.90
24772;DHT22;12870;52.274;9.754;2023-08-31T11:42:42;21.60;99.90
24772;DHT22;12870;52.274;9.754;2023-08-31T11:45:09;21.40;99.90
24772;DHT22;12870;52.274;9.754;2023-08-31T11:47:36;22.10;99.90
24772;DHT22;12870;52.274;9.754;2023-08-31T11:50:05;22.50;99.90
24772;DHT22;12870;52.274;9.754;2023-08-31T11:52:32;22.60;99.90
24772;DHT22;12870;52.274;9.754;2023-08-31T11:54:57;22.20;99.90
24772;DHT22;12870;52.274;9.754;2023-08-31T11:57:27;21.80;99.90
24772;DHT22;12870;52.274;9.754;2023-08-31T11:59:55;21.50;99.90
24772;DHT22;12870;52.274;9.754;2023-08-31T12:02:21;21.10;99.90
24772;DHT22;12870;52.274;9.754;2023-08-31T12:04:47;21.40;99.90
24772;DHT22;12870;52.274;9.754;2023-08-31T12:07:17;21.30;99.90
24772;DHT22;12870;52.274;9.754;2023-08-31T12:09:44;21.20;99.90
24772;DHT22;12870;52.274;9.754;2023-08-31T12:12:10;21.60;99.90
24772;DHT22;12870;52.274;9.754;2023-08-31T12:14:39;22.20;99.90
24772;DHT22;12870;52.274;9.754;2023-08-31T12:17:07;22.20;99.90
24772;DHT22;12870;52.274;9.754;2023-08-31T12:19:35;22.20;99.90
24772;DHT22;12870;52.274;9.754;2023-08-31T12:22:01;21.90;99.90
24772;DHT22;12870;52.274;9.754;2023-08-31T12:24:27;22.30;99.90
24772;DHT22;12870;52.274;9.754;2023-08-31T12:26:53;22.70;99.90
24772;DHT22;12870;52.274;9.754;2023-08-31T12:29:19;22.40;99.90
24772;DHT22;12870;52.274;9.754;2023-08-31T12:31:46;22.40;99.90
24772;DHT22;12870;52.274;9.754;2023-08-31T12:34:11;21.90;99.90
24772;DHT22;12870;52.274;9.754;2023-08-31T12:36:37;21.30;99.90
24772;DHT22;12870;52.274;9.754;2023-08-31T12:39:06;21.60;99.90
24772;DHT22;12870;52.274;9.754;2023-08-31T12:41:35;22.50;99.90
24772;DHT22;12870;52.274;9.754;2023-08-31T12:44:01;22.90;99.90
24772;DHT22;12870;52.274;9.754;2023-08-31T12:46:29;22.90;99.90
24772;DHT22;12870;52.274;9.754;2023-08-31T12:48:54;22.10;99.90
24772;DHT22;12870;52.274;9.754;2023-08-31T12:51:20;22.20;99.90
24772;DHT22;12870;52.274;9.754;2023-08-31T12:53:46;22.30;99.90
24772;DHT22;12870;52.274;9.754;2023-08-31T12:56:12;22.30;99.90
24772;DHT22;12870;52.274;9.754;2023-08-31T12:58:39;21.50;99.90
24772;DHT22;12870;52.274;9.754;2023-08-31T13:01:04;21.40;99.90
24772;DHT22;12870;52.274;9.754;2023-08-31T13:03:30;21.40;99.90
24772;DHT22;12870;52.274;9.754;2023-08-31T13:05:56;21.50;99.90
24772;DHT22;12870;52.274;9.754;2023-08-31T13:08:21;22.20;99.90
24772;DHT22;12870;52.274;9.754;2023-08-31T13:10:54;22.90;99.90
24772;DHT22;12870;52.274;9.754;2023-08-31T13:13:21;22.40;99.90
24772;DHT22;12870;52.274;9.754;2023-08-31T13:15:47;21.80;99.90
24772;DHT22;12870;52.274;9.754;2023-08-31T13:18:13;21.10;99.90
24772;DHT22;12870;52.274;9.754;2023-08-31T13:20:39;21.20;99.90
24772;DHT22;12870;52.274;9.754;2023-08-31T13:23:06;20.70;99.90
24772;DHT22;12870;52.274;9.754;2023-08-31T13:25:32;20.20;99.90
24772;DHT22;12870;52.274;9.754;2023-08-31T13:27:57;19.30;99.90
24772;DHT22;12870;52.274;9.754;2023-08-31T13:30:23;18.90;99.90
24772;DHT22;12870;52.274;9.754;2023-08-31T13:32:49;18.60;99.90
24772;DHT22;12870;52.274;9.754;2023-08-31T13:35:14;18.40;99.90
24772;DHT22;12870;52.274;9.754;2023-08-31T13:37:40;18.40;99.90
24772;DHT22;12870;52.274;9.754;2023-08-31T13:40:06;18.30;99.90
24772;DHT22;12870;52.274;9.754;2023-08-31T13:42:35;18.40;99.90
24772;DHT22;12870;52.274;9.754;2023-08-31T13:45:07;18.70;99.90
24772;DHT22;12870;52.274;9.754;2023-08-31T13:47:33;19.30;99.90
24772;DHT22;12870;52.274;9.754;2023-08-31T13:49:58;19.10;99.90
24772;DHT22;12870;52.274;9.754;2023-08-31T13:52:24;18.70;99.90
24772;DHT22;12870;52.274;9.754;2023-08-31T13:54:50;18.10;99.90
24772;DHT22;12870;52.274;9.754;2023-08-31T13:57:17;17.70;99.90
24772;DHT22;12870;52.274;9.754;2023-08-31T13:59:43;17.60;99.90
24772;DHT22;12870;52.274;9.754;2023-08-31T14:02:09;17.40;99.90
24772;DHT22;12870;52.274;9.754;2023-08-31T14:04:35;17.50;99.90
24772;DHT22;12870;52.274;9.754;2023-08-31T14:07:01;17.60;99.90
24772;DHT22;12870;52.274;9.754;2023-08-31T14:09:27;17.80;99.90
24772;DHT22;12870;52.274;9.754;2023-08-31T14:11:53;17.90;99.90
24772;DHT22;12870;52.274;9.754;2023-08-31T14:14:20;17.90;99.90
24772;DHT22;12870;52.274;9.754;2023-08-31T14:16:47;17.80;99.90
24772;DHT22;12870;52.274;9.754;2023-08-31T14:19:13;17.70;99.90
24772;DHT22;12870;52.274;9.754;2023-08-31T14:21:39;17.80;99.90
24772;DHT22;12870;52.274;9.754;2023-08-31T14:24:05;17.90;99.90
24772;DHT22;12870;52.274;9.754;2023-08-31T14:26:31;18.10;99.90
24772;DHT22;12870;52.274;9.754;2023-08-31T14:28:57;18.50;99.90
24772;DHT22;12870;52.274;9.754;2023-08-31T14:31:22;18.60;99.90
24772;DHT22;12870;52.274;9.754;2023-08-31T14:33:48;19.10;99.90
24772;DHT22;12870;52.274;9.754;2023-08-31T14:36:15;19.70;99.90
24772;DHT22;12870;52.274;9.754;2023-08-31T14:38:41;20.20;99.90
24772;DHT22;12870;52.274;9.754;2023-08-31T14:41:06;20.20;99.90
24772;DHT22;12870;52.274;9.754;2023-08-31T14:43:33;20.30;99.90
24772;DHT22;12870;52.274;9.754;2023-08-31T14:45:59;20.20;99.90
24772;DHT22;12870;52.274;9.754;2023-08-31T14:48:27;20.70;99.90
24772;DHT22;12870;52.274;9.754;2023-08-31T14:50:53;21.00;99.90
24772;DHT22;12870;52.274;9.754;2023-08-31T14:53:18;20.90;99.90
24772;DHT22;12870;52.274;9.754;2023-08-31T14:55:51;20.30;99.90
24772;DHT22;12870;52.274;9.754;2023-08-31T14:58:17;20.20;99.90
24772;DHT22;12870;52.274;9.754;2023-08-31T15:00:43;20.00;99.90
24772;DHT22;12870;52.274;9.754;2023-08-31T15:03:09;19.80;99.90
24772;DHT22;12870;52.274;9.754;2023-08-31T15:05:35;19.90;99.90
24772;DHT22;12870;52.274;9.754;2023-08-31T15:08:05;19.40;99.90
24772;DHT22;12870;52.274;9.754;2023-08-31T15:10:30;19.40;99.90
24772;DHT22;12870;52.274;9.754;2023-08-31T15:12:56;19.40;99.90
24772;DHT22;12870;52.274;9.754;2023-08-31T15:15:27;20.00;99.90
24772;DHT22;12870;52.274;9.754;2023-08-31T15:17:52;20.20;99.90
24772;DHT22;12870;52.274;9.754;2023-08-31T15:20:18;20.10;99.90
24772;DHT22;12870;52.274;9.754;2023-08-31T15:22:44;19.70;99.90
24772;DHT22;12870;52.274;9.754;2023-08-31T15:25:09;19.40;99.90
24772;DHT22;12870;52.274;9.754;2023-08-31T15:27:35;19.10;99.90
24772;DHT22;12870;52.274;9.754;2023-08-31T15:30:01;19.20;99.90
24772;DHT22;12870;52.274;9.754;2023-08-31T15:32:27;19.10;99.90
24772;DHT22;12870;52.274;9.754;2023-08-31T15:34:53;18.90;99.90
24772;DHT22;12870;52.274;9.754;2023-08-31T15:37:19;19.00;99.90
24772;DHT22;12870;52.274;9.754;2023-08-31T15:39:45;19.00;99.90
24772;DHT22;12870;52.274;9.754;2023-08-31T15:42:11;18.70;99.90
24772;DHT22;12870;52.274;9.754;2023-08-31T15:44:41;18.40;99.90
24772;DHT22;12870;52.274;9.754;2023-08-31T15:47:07;18.50;99.90
24772;DHT22;12870;52.274;9.754;2023-08-31T15:49:33;18.50;99.90
24772;DHT22;12870;52.274;9.754;2023-08-31T15:51:59;18.40;99.90